Time;durP1;ratioP1;P1;durP2;ratioP2;P2;SDS_P1;SDS_P2;PMS_P1;PMS_P2;Temp;Humidity;BMP_temperature;BMP_pressure;BME280_temperature;BME280_humidity;BME280_pressure;Samples;Min_cycle;Max_cycle;Signal;HPM_P1;HPM_P2
2023/07/21 00:01:03;;;;;;;0.10;0.10;;;13.50;99.90;;;;;;4988690;28;20556;-84
2023/07/21 00:03:30;;;;;;;0.10;0.10;;;13.40;99.90;;;;;;4991867;28;20488;-84
2023/07/21 00:05:56;;;;;;;0.10;0.10;;;13.40;99.90;;;;;;4974026;28;20436;-83
2023/07/21 00:08:23;;;;;;;0.03;0.03;;;13.30;99.90;;;;;;4987556;28;20552;-84
2023/07/21 00:10:48;;;;;;;0.07;0.07;;;13.20;99.90;;;;;;4991111;28;20559;-83
2023/07/21 00:13:14;;;;;;;0.10;0.10;;;13.30;99.90;;;;;;4993358;28;20458;-81
2023/07/21 00:15:40;;;;;;;0.10;0.10;;;13.10;99.90;;;;;;4990290;28;20185;-84
2023/07/21 00:18:05;;;;;;;0.10;0.10;;;13.20;99.90;;;;;;4988430;28;20244;-84
2023/07/21 00:20:30;;;;;;;0.10;0.10;;;13.30;99.90;;;;;;4991308;28;20196;-83
2023/07/21 00:22:56;;;;;;;0.10;0.10;;;13.10;99.90;;;;;;4992868;28;20624;-84
2023/07/21 00:25:21;;;;;;;0.10;0.10;;;13.00;99.90;;;;;;4993719;28;20255;-83
2023/07/21 00:27:47;;;;;;;0.07;0.07;;;13.10;99.90;;;;;;4992562;28;20189;-83
2023/07/21 00:30:13;;;;;;;0.00;0.00;;;13.00;99.90;;;;;;4975357;28;20264;-83
2023/07/21 00:32:40;;;;;;;0.10;0.10;;;13.10;99.90;;;;;;4993780;28;20189;-84
2023/07/21 00:35:08;;;;;;;0.10;0.10;;;13.00;99.90;;;;;;4989273;28;20599;-83
2023/07/21 00:37:34;;;;;;;0.07;0.07;;;12.90;99.90;;;;;;4991658;28;21027;-84
2023/07/21 00:40:03;;;;;;;0.10;0.10;;;12.90;99.90;;;;;;4990551;28;20440;-84
2023/07/21 00:42:28;;;;;;;0.10;0.10;;;12.90;99.90;;;;;;4992545;28;20428;-81
2023/07/21 00:44:54;;;;;;;0.10;0.10;;;12.70;99.90;;;;;;4983662;28;20489;-83
2023/07/21 00:47:20;;;;;;;0.10;0.10;;;12.90;99.90;;;;;;4987916;28;20185;-84
2023/07/21 00:49:45;;;;;;;0.10;0.10;;;12.80;99.90;;;;;;4991676;28;20235;-83
2023/07/21 00:52:17;;;;;;;0.10;0.10;;;12.80;99.90;;;;;;4969249;28;20504;-84
2023/07/21 00:54:43;;;;;;;0.10;0.10;;;12.80;99.90;;;;;;4966226;28;20193;-83
2023/07/21 00:57:08;;;;;;;0.10;0.10;;;12.80;99.90;;;;;;4990887;28;20468;-83
2023/07/21 00:59:35;;;;;;;0.20;0.20;;;12.80;99.90;;;;;;4991162;28;20200;-83
2023/07/21 01:02:01;;;;;;;0.10;0.10;;;12.70;99.90;;;;;;4992039;28;20260;-83
2023/07/21 01:04:26;;;;;;;0.20;0.20;;;12.70;99.90;;;;;;4990691;28;21043;-83
2023/07/21 01:06:53;;;;;;;0.20;0.20;;;12.70;99.90;;;;;;4991999;28;20193;-83
2023/07/21 01:09:19;;;;;;;0.20;0.20;;;12.80;99.90;;;;;;4988582;28;20217;-83
2023/07/21 01:11:46;;;;;;;0.20;0.20;;;12.60;99.90;;;;;;4992436;28;20482;-83
2023/07/21 01:14:12;;;;;;;0.10;0.10;;;12.50;99.90;;;;;;4967296;28;20434;-83
2023/07/21 01:16:43;;;;;;;0.10;0.10;;;12.60;99.90;;;;;;4985557;28;20521;-80
2023/07/21 01:19:14;;;;;;;0.10;0.10;;;12.60;99.90;;;;;;4992563;28;20428;-83
2023/07/21 01:21:46;;;;;;;0.10;0.10;;;12.50;99.90;;;;;;4986338;28;20534;-83
2023/07/21 01:24:38;;;;;;;0.10;0.10;;;12.50;99.90;;;;;;4989319;28;20582;-82
2023/07/21 01:27:05;;;;;;;0.10;0.10;;;12.70;99.90;;;;;;4984088;28;20452;-82
2023/07/21 01:29:34;;;;;;;0.10;0.10;;;12.60;99.90;;;;;;4974271;28;20454;-83
2023/07/21 01:32:04;;;;;;;0.20;0.20;;;12.50;99.90;;;;;;4991143;28;20947;-83
2023/07/21 01:34:31;;;;;;;0.10;0.10;;;12.50;99.90;;;;;;4974524;28;20836;-83
2023/07/21 01:36:59;;;;;;;0.10;0.10;;;12.50;99.90;;;;;;4979386;28;20937;-83
2023/07/21 01:39:25;;;;;;;0.20;0.20;;;12.40;99.90;;;;;;4983620;28;20460;-83
2023/07/21 01:41:51;;;;;;;0.20;0.20;;;12.30;99.90;;;;;;4989320;28;20444;-83
2023/07/21 01:44:18;;;;;;;0.10;0.10;;;12.40;99.90;;;;;;4991056;28;20483;-83
2023/07/21 01:46:43;;;;;;;0.10;0.10;;;12.30;99.90;;;;;;4989844;28;20181;-83
2023/07/21 01:49:09;;;;;;;0.10;0.10;;;12.30;99.90;;;;;;4990694;28;20452;-83
2023/07/21 01:51:35;;;;;;;0.20;0.20;;;12.30;99.90;;;;;;4986749;28;20200;-83
2023/07/21 01:54:07;;;;;;;0.10;0.10;;;12.20;99.90;;;;;;4977216;28;20217;-83
2023/07/21 01:56:52;;;;;;;0.20;0.20;;;12.40;99.90;;;;;;4991201;28;20448;-83
2023/07/21 01:59:21;;;;;;;0.10;0.10;;;12.30;99.90;;;;;;4974343;28;20457;-83
2023/07/21 02:01:48;;;;;;;0.20;0.20;;;12.20;99.90;;;;;;4984131;28;20472;-83
2023/07/21 02:04:13;;;;;;;0.20;0.20;;;12.20;99.90;;;;;;4991877;28;20484;-83
2023/07/21 02:06:40;;;;;;;0.20;0.20;;;12.20;99.90;;;;;;4989388;28;20499;-80
2023/07/21 02:09:05;;;;;;;0.20;0.20;;;12.20;99.90;;;;;;4991406;28;20549;-83
2023/07/21 02:11:31;;;;;;;0.20;0.20;;;12.20;99.90;;;;;;4964260;28;20437;-83
2023/07/21 02:13:58;;;;;;;0.20;0.20;;;12.10;99.90;;;;;;4972146;28;20209;-82
2023/07/21 02:16:23;;;;;;;0.20;0.20;;;12.10;99.90;;;;;;4986644;28;20900;-83
2023/07/21 02:18:49;;;;;;;0.20;0.20;;;12.20;99.90;;;;;;4972515;28;20555;-83
2023/07/21 02:21:14;;;;;;;0.10;0.10;;;12.30;99.90;;;;;;4988556;28;20216;-82
2023/07/21 02:23:40;;;;;;;0.20;0.20;;;12.20;99.90;;;;;;4990285;28;20224;-83
2023/07/21 02:26:05;;;;;;;0.10;0.10;;;12.10;99.90;;;;;;4990414;28;20603;-83
2023/07/21 02:28:31;;;;;;;0.20;0.20;;;12.10;99.90;;;;;;4991243;28;20252;-79
2023/07/21 02:31:03;;;;;;;0.20;0.20;;;12.00;99.90;;;;;;4967445;28;20193;-83
2023/07/21 02:33:30;;;;;;;0.20;0.20;;;12.10;99.90;;;;;;4964690;28;20193;-83
2023/07/21 02:35:57;;;;;;;0.20;0.20;;;12.00;99.90;;;;;;4988951;28;20455;-82
2023/07/21 02:38:23;;;;;;;0.10;0.10;;;12.10;99.90;;;;;;4990463;28;20475;-83
2023/07/21 02:40:49;;;;;;;0.20;0.20;;;12.10;99.90;;;;;;4989997;28;20515;-83
2023/07/21 02:43:17;;;;;;;0.20;0.20;;;12.10;99.90;;;;;;4989589;28;20229;-83
2023/07/21 02:45:51;;;;;;;0.20;0.20;;;12.00;99.90;;;;;;4989667;28;20484;-80
2023/07/21 02:48:17;;;;;;;0.20;0.20;;;12.10;99.90;;;;;;4982903;28;20439;-82
2023/07/21 02:50:51;;;;;;;0.20;0.20;;;12.10;99.90;;;;;;4986727;28;20448;-83
2023/07/21 02:53:17;;;;;;;0.20;0.20;;;12.10;99.90;;;;;;4973459;28;20854;-83
2023/07/21 02:55:43;;;;;;;0.20;0.20;;;12.20;99.90;;;;;;4990346;28;21047;-83
2023/07/21 02:58:11;;;;;;;0.20;0.20;;;12.10;99.90;;;;;;4990241;28;20463;-83
2023/07/21 03:00:36;;;;;;;0.10;0.10;;;12.10;99.90;;;;;;4987351;28;20451;-83
2023/07/21 03:03:03;;;;;;;0.10;0.10;;;12.00;99.90;;;;;;4993090;28;20799;-83
2023/07/21 03:05:32;;;;;;;0.10;0.10;;;12.00;99.90;;;;;;4989000;28;20224;-82
2023/07/21 03:07:57;;;;;;;0.20;0.20;;;12.10;99.90;;;;;;4985706;28;20436;-83
2023/07/21 03:10:23;;;;;;;0.10;0.10;;;12.00;99.90;;;;;;4993820;28;20515;-83
2023/07/21 03:12:49;;;;;;;0.10;0.10;;;11.90;99.90;;;;;;4993636;28;20202;-83
2023/07/21 03:15:15;;;;;;;0.10;0.10;;;11.80;99.90;;;;;;4992329;28;20755;-82
2023/07/21 03:17:41;;;;;;;0.10;0.10;;;11.80;99.90;;;;;;4960773;28;20204;-81
2023/07/21 03:20:14;;;;;;;0.20;0.20;;;11.90;99.90;;;;;;4978884;28;20439;-81
2023/07/21 03:22:42;;;;;;;0.10;0.10;;;11.90;99.90;;;;;;4972427;28;20535;-81
2023/07/21 03:25:09;;;;;;;0.10;0.10;;;12.00;99.90;;;;;;4991297;28;21067;-81
2023/07/21 03:27:34;;;;;;;0.10;0.10;;;12.00;99.90;;;;;;4994289;28;20932;-82
2023/07/21 03:30:01;;;;;;;0.03;0.03;;;11.90;99.90;;;;;;4973877;28;20456;-83
2023/07/21 03:32:27;;;;;;;0.10;0.10;;;11.90;99.90;;;;;;4993833;28;20897;-81
2023/07/21 03:34:54;;;;;;;0.10;0.10;;;11.90;99.90;;;;;;4973564;28;20640;-84
2023/07/21 03:37:23;;;;;;;0.10;0.10;;;11.90;99.90;;;;;;4989590;28;20539;-81
2023/07/21 03:39:48;;;;;;;0.10;0.10;;;11.90;99.90;;;;;;4993685;28;20471;-83
2023/07/21 03:42:14;;;;;;;0.10;0.10;;;11.90;99.90;;;;;;4994139;28;20889;-83
2023/07/21 03:44:39;;;;;;;0.10;0.10;;;11.90;99.90;;;;;;4992542;28;20228;-84
2023/07/21 03:47:05;;;;;;;0.10;0.10;;;11.80;99.90;;;;;;4990531;28;20259;-82
2023/07/21 03:49:31;;;;;;;0.10;0.10;;;11.90;99.90;;;;;;4993035;28;20197;-80
2023/07/21 03:51:57;;;;;;;0.10;0.10;;;12.00;99.90;;;;;;4987879;28;20177;-80
2023/07/21 03:54:23;;;;;;;0.10;0.10;;;12.00;99.90;;;;;;4986219;28;20502;-80
2023/07/21 03:56:48;;;;;;;0.10;0.10;;;12.10;99.90;;;;;;4991457;28;20199;-83
2023/07/21 03:59:14;;;;;;;0.10;0.10;;;12.20;99.90;;;;;;4991729;28;20252;-80
2023/07/21 04:01:39;;;;;;;0.07;0.07;;;12.20;99.90;;;;;;4993289;28;20271;-80
2023/07/21 04:04:05;;;;;;;0.10;0.10;;;12.20;99.90;;;;;;4991617;28;20296;-83
2023/07/21 04:06:30;;;;;;;0.10;0.10;;;12.20;99.90;;;;;;4993703;28;20189;-83
2023/07/21 04:08:56;;;;;;;0.10;0.10;;;12.20;99.90;;;;;;4992058;28;20197;-83
2023/07/21 04:11:21;;;;;;;0.20;0.20;;;12.10;99.90;;;;;;4991088;28;20293;-83
2023/07/21 04:13:47;;;;;;;0.10;0.10;;;12.00;99.90;;;;;;4988767;28;20620;-83
2023/07/21 04:16:13;;;;;;;0.10;0.10;;;12.00;99.90;;;;;;4974161;28;20239;-83
2023/07/21 04:18:39;;;;;;;0.10;0.10;;;12.00;99.90;;;;;;4988621;28;20197;-83
2023/07/21 04:21:05;;;;;;;0.20;0.20;;;12.10;99.90;;;;;;4991329;28;20190;-82
2023/07/21 04:23:30;;;;;;;0.10;0.10;;;12.00;99.90;;;;;;4990512;28;20875;-81
2023/07/21 04:25:56;;;;;;;0.10;0.10;;;12.00;99.90;;;;;;4987979;28;20198;-83
2023/07/21 04:28:22;;;;;;;0.10;0.10;;;12.00;99.90;;;;;;4989108;28;20192;-82
2023/07/21 04:30:53;;;;;;;0.10;0.10;;;12.10;99.90;;;;;;4975224;28;20440;-83
2023/07/21 04:33:19;;;;;;;0.20;0.20;;;12.30;99.90;;;;;;4974262;28;20262;-82
2023/07/21 04:35:48;;;;;;;0.10;0.10;;;12.20;99.90;;;;;;4991465;28;20943;-82
2023/07/21 04:38:14;;;;;;;0.20;0.20;;;12.20;99.90;;;;;;4990252;28;20189;-82
2023/07/21 04:40:44;;;;;;;0.20;0.20;;;12.30;99.90;;;;;;4974383;28;20474;-83
2023/07/21 04:43:11;;;;;;;0.10;0.10;;;12.20;99.90;;;;;;4988769;28;20484;-82
2023/07/21 04:45:40;;;;;;;0.10;0.10;;;12.20;99.90;;;;;;4987764;28;20491;-83
2023/07/21 04:48:06;;;;;;;0.10;0.10;;;12.20;99.90;;;;;;4990293;28;20523;-83
2023/07/21 04:50:31;;;;;;;0.20;0.20;;;12.30;99.90;;;;;;4982228;28;20542;-83
2023/07/21 04:52:57;;;;;;;0.20;0.20;;;12.40;99.90;;;;;;4991661;28;20288;-83
2023/07/21 04:55:22;;;;;;;0.20;0.20;;;12.40;99.90;;;;;;4974451;28;20196;-84
2023/07/21 04:57:48;;;;;;;0.20;0.20;;;12.40;99.90;;;;;;4986834;28;20911;-83
2023/07/21 05:00:15;;;;;;;0.20;0.20;;;12.50;99.90;;;;;;4972282;28;20193;-83
2023/07/21 05:02:40;;;;;;;0.10;0.10;;;12.60;99.90;;;;;;4983882;28;20673;-83
2023/07/21 05:05:07;;;;;;;0.10;0.10;;;12.60;99.90;;;;;;4984340;28;20483;-84
2023/07/21 05:07:33;;;;;;;0.10;0.10;;;12.70;99.90;;;;;;4986837;28;20248;-83
2023/07/21 05:09:58;;;;;;;0.10;0.10;;;12.70;99.90;;;;;;4986225;28;20456;-83
2023/07/21 05:12:25;;;;;;;0.10;0.10;;;12.80;99.90;;;;;;4984943;28;20676;-83
2023/07/21 05:14:50;;;;;;;0.10;0.10;;;12.90;99.90;;;;;;4980982;28;20185;-83
2023/07/21 05:17:17;;;;;;;0.10;0.10;;;12.90;99.90;;;;;;4968749;28;20531;-83
2023/07/21 05:19:44;;;;;;;0.10;0.10;;;13.10;99.90;;;;;;4984472;28;20197;-83
2023/07/21 05:22:10;;;;;;;0.20;0.20;;;13.10;99.90;;;;;;4990927;28;20444;-84
2023/07/21 05:24:35;;;;;;;0.17;0.17;;;13.20;99.90;;;;;;4970404;28;20491;-83
2023/07/21 05:27:01;;;;;;;0.10;0.10;;;13.30;99.90;;;;;;4985554;28;20801;-83
2023/07/21 05:29:27;;;;;;;0.10;0.10;;;13.40;99.90;;;;;;4968308;28;20193;-84
2023/07/21 05:31:52;;;;;;;0.10;0.10;;;13.50;99.90;;;;;;4983905;28;20237;-82
2023/07/21 05:34:21;;;;;;;0.10;0.10;;;13.60;99.90;;;;;;4991747;28;20677;-82
2023/07/21 05:36:47;;;;;;;0.10;0.10;;;13.70;99.90;;;;;;4984457;28;20475;-84
2023/07/21 05:39:13;;;;;;;0.10;0.10;;;13.90;99.90;;;;;;4989368;28;20448;-84
2023/07/21 05:41:38;;;;;;;0.10;0.10;;;14.00;99.90;;;;;;4988615;28;20455;-84
2023/07/21 05:44:04;;;;;;;0.20;0.20;;;14.20;99.90;;;;;;4989470;28;20315;-84
2023/07/21 05:46:29;;;;;;;0.10;0.10;;;14.20;99.90;;;;;;4986430;28;20882;-84
2023/07/21 05:48:55;;;;;;;0.10;0.10;;;14.30;99.90;;;;;;4986581;28;20272;-84
2023/07/21 05:51:21;;;;;;;0.10;0.10;;;14.40;99.90;;;;;;4967681;28;20227;-84
2023/07/21 05:53:46;;;;;;;0.10;0.10;;;14.40;99.90;;;;;;4981105;28;20208;-84
2023/07/21 05:56:12;;;;;;;0.10;0.10;;;14.50;99.90;;;;;;4984882;28;20247;-85
2023/07/21 05:58:37;;;;;;;0.10;0.10;;;14.50;99.90;;;;;;4972276;28;20197;-84
2023/07/21 06:01:04;;;;;;;0.10;0.10;;;14.60;99.90;;;;;;4969162;28;20247;-84
2023/07/21 06:03:30;;;;;;;0.10;0.10;;;14.70;99.90;;;;;;4988106;28;20201;-83
2023/07/21 06:05:56;;;;;;;0.10;0.10;;;14.80;99.90;;;;;;4987878;28;20538;-84
2023/07/21 06:08:24;;;;;;;0.10;0.10;;;14.90;99.90;;;;;;4986075;28;20556;-85
2023/07/21 06:10:57;;;;;;;0.10;0.10;;;15.00;99.90;;;;;;4987847;28;20197;-84
2023/07/21 06:13:23;;;;;;;0.10;0.10;;;15.10;99.90;;;;;;4986411;28;20428;-83
2023/07/21 06:15:48;;;;;;;0.10;0.10;;;15.10;99.90;;;;;;4988334;28;20458;-83
2023/07/21 06:18:14;;;;;;;0.10;0.10;;;15.20;99.90;;;;;;4989698;28;20211;-84
2023/07/21 06:20:39;;;;;;;0.10;0.10;;;15.30;99.90;;;;;;4972461;28;20645;-83
2023/07/21 06:23:05;;;;;;;0.10;0.10;;;15.40;99.90;;;;;;4986292;28;20212;-84
2023/07/21 06:25:30;;;;;;;0.10;0.10;;;15.60;99.90;;;;;;4985979;28;20763;-85
2023/07/21 06:27:57;;;;;;;0.10;0.10;;;15.60;99.90;;;;;;4987663;28;20224;-84
2023/07/21 06:30:22;;;;;;;0.10;0.10;;;15.70;99.90;;;;;;4989740;28;20192;-86
2023/07/21 06:32:48;;;;;;;0.10;0.10;;;15.90;99.90;;;;;;4990402;28;20436;-83
2023/07/21 06:35:13;;;;;;;0.10;0.10;;;15.90;99.90;;;;;;4988297;28;20400;-84
2023/07/21 06:37:39;;;;;;;0.10;0.10;;;16.00;99.90;;;;;;4981667;28;20197;-84
2023/07/21 06:40:06;;;;;;;0.10;0.10;;;16.20;99.90;;;;;;4978365;28;20280;-84
2023/07/21 06:42:32;;;;;;;0.10;0.10;;;16.40;99.90;;;;;;4970554;28;20184;-83
2023/07/21 06:44:57;;;;;;;0.10;0.10;;;16.50;99.90;;;;;;4985994;28;20495;-84
2023/07/21 06:47:23;;;;;;;0.10;0.10;;;16.50;99.90;;;;;;4970517;28;20196;-83
2023/07/21 06:49:51;;;;;;;0.10;0.10;;;16.60;99.90;;;;;;4985019;28;20189;-82
2023/07/21 06:52:17;;;;;;;0.10;0.10;;;16.60;99.90;;;;;;4984770;28;20259;-83
2023/07/21 06:54:42;;;;;;;0.10;0.10;;;16.50;99.90;;;;;;4988490;28;20845;-83
2023/07/21 06:57:10;;;;;;;0.10;0.10;;;16.60;99.90;;;;;;4988588;28;20266;-82
2023/07/21 06:59:36;;;;;;;0.10;0.10;;;16.70;99.90;;;;;;4987837;28;20649;-83
2023/07/21 07:02:01;;;;;;;0.10;0.10;;;16.80;99.90;;;;;;4989879;28;20459;-82
2023/07/21 07:04:27;;;;;;;0.10;0.10;;;16.70;99.90;;;;;;4989630;28;20483;-82
2023/07/21 07:06:55;;;;;;;0.10;0.10;;;16.70;99.90;;;;;;4986011;28;20711;-82
2023/07/21 07:09:24;;;;;;;0.10;0.10;;;16.80;99.90;;;;;;4985472;28;20216;-83
2023/07/21 07:11:53;;;;;;;0.10;0.10;;;16.90;99.90;;;;;;4989530;28;20440;-83
2023/07/21 07:14:19;;;;;;;0.10;0.10;;;17.00;99.90;;;;;;4989360;28;20607;-83
2023/07/21 07:16:44;;;;;;;0.10;0.10;;;17.00;99.90;;;;;;4980155;28;20547;-84
2023/07/21 07:19:10;;;;;;;0.10;0.10;;;16.70;99.90;;;;;;4984357;28;20641;-84
2023/07/21 07:21:36;;;;;;;0.10;0.10;;;16.70;99.90;;;;;;4986612;28;20281;-85
2023/07/21 07:24:01;;;;;;;0.10;0.10;;;16.80;99.90;;;;;;4988341;28;20483;-83
2023/07/21 07:26:27;;;;;;;0.10;0.10;;;16.90;99.90;;;;;;4971399;28;20256;-83
2023/07/21 07:28:53;;;;;;;0.10;0.10;;;16.70;99.90;;;;;;4988925;28;20184;-85
2023/07/21 07:31:19;;;;;;;0.00;0.00;;;16.70;99.90;;;;;;4986400;28;20445;-84
2023/07/21 07:33:44;;;;;;;0.00;0.00;;;16.70;99.90;;;;;;4987457;28;20665;-83
2023/07/21 07:36:11;;;;;;;0.00;0.00;;;16.80;99.90;;;;;;4961223;28;20514;-85
2023/07/21 07:38:38;;;;;;;0.00;0.00;;;16.90;99.90;;;;;;4983689;28;20555;-84
2023/07/21 07:41:05;;;;;;;0.10;0.10;;;16.80;99.90;;;;;;4986981;28;20546;-83
2023/07/21 07:43:32;;;;;;;0.00;0.00;;;17.20;99.90;;;;;;4984911;28;20498;-83
2023/07/21 07:45:58;;;;;;;0.10;0.10;;;17.80;99.90;;;;;;4969202;28;20440;-84
2023/07/21 07:48:24;;;;;;;0.10;0.10;;;18.10;99.90;;;;;;4974443;28;20427;-83
2023/07/21 07:50:51;;;;;;;0.10;0.10;;;18.40;99.90;;;;;;4992270;28;20937;-83
2023/07/21 07:53:17;;;;;;;0.10;0.10;;;18.50;99.90;;;;;;4992288;28;20252;-83
2023/07/21 07:55:44;;;;;;;0.10;0.10;;;18.10;99.90;;;;;;4979211;28;20457;-85
2023/07/21 07:58:10;;;;;;;0.10;0.10;;;17.70;99.90;;;;;;4990988;28;21027;-86
2023/07/21 08:00:38;;;;;;;0.10;0.10;;;17.20;99.90;;;;;;4992131;28;20811;-85
2023/07/21 08:03:08;;;;;;;0.10;0.10;;;17.00;99.90;;;;;;4991336;28;20440;-85
2023/07/21 08:05:38;;;;;;;0.10;0.10;;;16.80;99.90;;;;;;4966311;28;20836;-85
2023/07/21 08:08:04;;;;;;;0.10;0.00;;;16.60;99.90;;;;;;4984101;28;21422;-84
2023/07/21 08:10:33;;;;;;;0.03;0.00;;;16.30;99.90;;;;;;4986903;28;20502;-84
2023/07/21 08:13:00;;;;;;;0.10;0.10;;;16.10;99.90;;;;;;4965371;28;20440;-83
2023/07/21 08:15:26;;;;;;;0.10;0.10;;;15.90;99.90;;;;;;4972209;28;20441;-82
2023/07/21 08:17:52;;;;;;;0.10;0.10;;;15.70;99.90;;;;;;4973812;28;20440;-82
2023/07/21 08:20:18;;;;;;;0.10;0.10;;;15.30;99.90;;;;;;4982203;28;20797;-80
2023/07/21 08:22:50;;;;;;;0.10;0.10;;;15.20;99.90;;;;;;4974334;28;24158;-80
2023/07/21 08:25:17;;;;;;;0.10;0.10;;;15.00;99.90;;;;;;4991391;28;20567;-81
2023/07/21 08:27:43;;;;;;;0.10;0.10;;;15.00;99.90;;;;;;4991133;28;20441;-81
2023/07/21 08:30:09;;;;;;;0.10;0.10;;;15.10;99.90;;;;;;4991442;28;20451;-81
2023/07/21 08:32:36;;;;;;;0.10;0.10;;;15.00;99.90;;;;;;4991686;28;20248;-80
2023/07/21 08:35:03;;;;;;;0.00;0.00;;;15.00;99.90;;;;;;4972886;28;20458;-81
2023/07/21 08:37:30;;;;;;;0.00;0.00;;;15.10;99.90;;;;;;4991833;28;20492;-81
2023/07/21 08:39:55;;;;;;;0.10;0.10;;;15.20;99.90;;;;;;4990981;28;20440;-81
2023/07/21 08:42:23;;;;;;;0.10;0.10;;;15.40;99.90;;;;;;4972985;28;20459;-81
2023/07/21 08:44:50;;;;;;;0.00;0.00;;;15.60;99.90;;;;;;4988764;28;20249;-82
2023/07/21 08:47:16;;;;;;;0.00;0.00;;;15.60;99.90;;;;;;4992410;28;20455;-81
2023/07/21 08:49:41;;;;;;;0.10;0.10;;;15.70;99.90;;;;;;4974537;28;20456;-82
2023/07/21 08:52:07;;;;;;;0.10;0.10;;;15.70;99.90;;;;;;4988716;28;20259;-81
2023/07/21 08:54:32;;;;;;;0.10;0.10;;;15.90;99.90;;;;;;4986922;28;20189;-82
2023/07/21 08:56:58;;;;;;;0.10;0.10;;;16.20;99.90;;;;;;4994298;28;20185;-82
2023/07/21 08:59:23;;;;;;;0.10;0.10;;;16.40;99.90;;;;;;4987514;28;20288;-82
2023/07/21 09:01:49;;;;;;;0.10;0.10;;;16.50;99.90;;;;;;4986595;28;20190;-82
2023/07/21 09:04:23;;;;;;;0.00;0.00;;;16.80;99.90;;;;;;4988708;28;20721;-82
2023/07/21 09:06:52;;;;;;;0.10;0.10;;;16.50;99.90;;;;;;4968770;28;20197;-82
2023/07/21 09:09:20;;;;;;;0.10;0.10;;;16.50;99.90;;;;;;4994639;28;21221;-81
2023/07/21 09:11:46;;;;;;;0.10;0.10;;;16.50;99.90;;;;;;4980656;28;20445;-81
2023/07/21 09:14:12;;;;;;;0.10;0.10;;;16.40;99.90;;;;;;4982448;28;20822;-81
2023/07/21 09:16:42;;;;;;;0.00;0.00;;;16.00;99.90;;;;;;4984716;28;20452;-81
2023/07/21 09:19:09;;;;;;;0.00;0.00;;;15.60;99.90;;;;;;4994172;28;20184;-82
2023/07/21 09:21:35;;;;;;;0.10;0.10;;;15.60;99.90;;;;;;4991721;28;20456;-82
2023/07/21 09:24:03;;;;;;;0.10;0.10;;;15.60;99.90;;;;;;4996290;28;20468;-82
2023/07/21 09:26:28;;;;;;;0.10;0.10;;;15.60;99.90;;;;;;4982817;28;20452;-82
2023/07/21 09:28:54;;;;;;;0.10;0.10;;;15.70;99.90;;;;;;4978396;28;20498;-81
2023/07/21 09:31:32;;;;;;;0.10;0.10;;;16.00;99.90;;;;;;4987536;28;20200;-82
2023/07/21 09:34:09;;;;;;;0.10;0.10;;;16.20;99.90;;;;;;4984858;28;20228;-81
2023/07/21 09:36:35;;;;;;;0.10;0.10;;;16.20;99.90;;;;;;4986243;28;20485;-81
2023/07/21 09:39:03;;;;;;;0.10;0.10;;;16.10;99.90;;;;;;4983966;28;20478;-81
2023/07/21 09:41:32;;;;;;;0.00;0.00;;;16.00;99.90;;;;;;4985420;28;20443;-82
2023/07/21 09:43:58;;;;;;;0.00;0.00;;;16.30;99.90;;;;;;4987070;28;21012;-82
2023/07/21 09:46:24;;;;;;;0.00;0.00;;;16.70;99.90;;;;;;4962138;28;20452;-82
2023/07/21 09:48:49;;;;;;;0.10;0.10;;;17.20;99.90;;;;;;4970712;28;20811;-83
2023/07/21 09:51:17;;;;;;;0.10;0.10;;;17.90;99.90;;;;;;4987359;28;20193;-82
2023/07/21 09:53:43;;;;;;;0.10;0.10;;;18.30;99.90;;;;;;4970391;28;20216;-83
2023/07/21 09:56:10;;;;;;;0.10;0.10;;;18.90;99.90;;;;;;4984729;28;22362;-83
2023/07/21 09:58:41;;;;;;;0.10;0.10;;;19.60;99.90;;;;;;4990120;28;20455;-83
2023/07/21 10:01:09;;;;;;;0.10;0.00;;;19.70;99.90;;;;;;4988366;28;20441;-83
2023/07/21 10:03:36;;;;;;;0.10;0.10;;;20.00;99.90;;;;;;4988146;28;20440;-84
2023/07/21 10:06:03;;;;;;;0.10;0.00;;;20.50;99.90;;;;;;4989373;28;20455;-83
2023/07/21 10:08:31;;;;;;;0.10;0.10;;;21.10;99.90;;;;;;4988794;28;20873;-83
2023/07/21 10:10:58;;;;;;;0.10;0.00;;;20.70;99.90;;;;;;4990226;28;20428;-83
2023/07/21 10:13:25;;;;;;;0.10;0.00;;;19.70;99.90;;;;;;4972501;28;20956;-82
2023/07/21 10:15:51;;;;;;;0.10;0.00;;;19.50;99.90;;;;;;4985178;28;20542;-82
2023/07/21 10:18:18;;;;;;;0.10;0.00;;;19.80;99.90;;;;;;4983568;28;20531;-83
2023/07/21 10:20:51;;;;;;;0.10;0.10;;;20.20;99.90;;;;;;4987145;28;20268;-83
2023/07/21 10:23:23;;;;;;;0.10;0.00;;;20.30;99.90;;;;;;4983910;28;20498;-83
2023/07/21 10:25:52;;;;;;;0.10;0.00;;;19.60;99.90;;;;;;4985975;28;20483;-81
2023/07/21 10:28:38;;;;;;;0.10;0.00;;;18.80;99.90;;;;;;4986779;28;20436;-82
2023/07/21 10:31:21;;;;;;;0.00;0.00;;;18.30;99.90;;;;;;4985744;28;20443;-82
2023/07/21 10:34:06;;;;;;;0.10;0.10;;;17.10;99.90;;;;;;4988564;28;21081;-82
2023/07/21 10:36:53;;;;;;;0.10;0.10;;;16.50;99.90;;;;;;4960653;28;20472;-81
2023/07/21 10:39:22;;;;;;;0.10;0.10;;;16.00;99.90;;;;;;4983297;28;20454;-80
2023/07/21 10:41:50;;;;;;;0.10;0.10;;;15.90;99.90;;;;;;4976417;28;20483;-80
2023/07/21 10:44:17;;;;;;;0.10;0.10;;;15.30;99.90;;;;;;4964549;28;20496;-80
2023/07/21 10:46:48;;;;;;;0.10;0.10;;;15.50;99.90;;;;;;4978031;28;20444;-81
2023/07/21 10:49:16;;;;;;;0.10;0.10;;;15.40;99.90;;;;;;4976400;28;20443;-81
2023/07/21 10:51:44;;;;;;;0.10;0.10;;;15.20;99.90;;;;;;4977830;28;20979;-81
2023/07/21 10:54:10;;;;;;;0.10;0.10;;;15.30;99.90;;;;;;4963509;28;20447;-81
2023/07/21 10:56:39;;;;;;;0.10;0.10;;;15.40;99.90;;;;;;4977076;28;20810;-82
2023/07/21 10:59:05;;;;;;;0.10;0.10;;;15.50;99.90;;;;;;4983436;28;20468;-81
2023/07/21 11:01:36;;;;;;;0.10;0.10;;;15.70;99.90;;;;;;4984045;28;20491;-82
2023/07/21 11:04:04;;;;;;;0.10;0.10;;;15.90;99.90;;;;;;4985604;28;20201;-81
2023/07/21 11:06:29;;;;;;;0.10;0.10;;;16.40;99.90;;;;;;4969491;28;20975;-81
2023/07/21 11:08:55;;;;;;;0.10;0.10;;;16.60;99.90;;;;;;4988100;28;20443;-81
2023/07/21 11:11:21;;;;;;;0.10;0.10;;;17.40;99.90;;;;;;4987858;28;20192;-82
2023/07/21 11:13:47;;;;;;;0.10;0.00;;;18.50;99.90;;;;;;4986207;28;20185;-82
2023/07/21 11:16:13;;;;;;;0.10;0.00;;;19.70;99.90;;;;;;4982857;28;20448;-82
2023/07/21 11:18:42;;;;;;;0.10;0.00;;;20.70;99.90;;;;;;4976062;28;20449;-81
2023/07/21 11:21:07;;;;;;;0.10;0.00;;;21.80;99.90;;;;;;4978581;28;20189;-83
2023/07/21 11:23:33;;;;;;;0.10;0.00;;;22.60;99.90;;;;;;4989832;28;20486;-82
2023/07/21 11:26:07;;;;;;;0.10;0.00;;;22.60;99.90;;;;;;4988607;28;20676;-82
2023/07/21 11:28:34;;;;;;;0.10;0.00;;;23.00;99.90;;;;;;4982662;28;20221;-84
2023/07/21 11:31:03;;;;;;;0.10;0.00;;;22.60;99.90;;;;;;4988799;28;20542;-82
2023/07/21 11:33:42;;;;;;;0.10;0.00;;;21.90;99.90;;;;;;4976781;28;20448;-83
2023/07/21 11:36:21;;;;;;;0.10;0.00;;;20.50;99.90;;;;;;4982616;28;20435;-83
2023/07/21 11:38:57;;;;;;;0.10;0.00;;;19.70;99.90;;;;;;4978149;28;21373;-82
2023/07/21 11:41:46;;;;;;;0.10;0.00;;;19.00;99.90;;;;;;4990106;28;20443;-81
2023/07/21 11:44:18;;;;;;;0.10;0.00;;;18.50;99.90;;;;;;4981301;28;21103;-81
2023/07/21 11:47:06;;;;;;;0.10;0.00;;;18.30;99.90;;;;;;4966224;28;20482;-82
2023/07/21 11:49:36;;;;;;;0.10;0.00;;;18.70;99.90;;;;;;4963112;28;20818;-81
2023/07/21 11:52:03;;;;;;;0.10;0.00;;;19.10;99.90;;;;;;4967333;28;20443;-82
2023/07/21 11:54:36;;;;;;;0.10;0.00;;;20.10;99.90;;;;;;4985572;28;20994;-83
2023/07/21 11:57:02;;;;;;;0.10;0.00;;;20.90;99.90;;;;;;4986826;28;20554;-82
2023/07/21 11:59:28;;;;;;;0.10;0.00;;;20.70;99.90;;;;;;4986692;28;20463;-84
2023/07/21 12:01:55;;;;;;;0.10;0.00;;;21.00;99.90;;;;;;4985178;28;20539;-83
2023/07/21 12:04:22;;;;;;;0.10;0.00;;;21.40;99.90;;;;;;4979209;28;20499;-83
2023/07/21 12:06:48;;;;;;;0.10;0.00;;;22.70;99.90;;;;;;4990828;28;20452;-84
2023/07/21 12:09:14;;;;;;;0.10;0.00;;;23.50;99.90;;;;;;4982647;28;20475;-82
2023/07/21 12:11:41;;;;;;;0.10;0.00;;;23.70;99.90;;;;;;4969071;28;20502;-84
2023/07/21 12:14:06;;;;;;;0.10;0.00;;;24.70;99.90;;;;;;4981428;28;20463;-84
2023/07/21 12:16:34;;;;;;;0.10;0.00;;;23.20;99.90;;;;;;4969184;28;20960;-82
2023/07/21 12:19:00;;;;;;;0.10;0.00;;;22.30;99.90;;;;;;4989216;28;20185;-84
2023/07/21 12:21:25;;;;;;;0.10;0.00;;;21.80;99.90;;;;;;4982831;28;20542;-83
2023/07/21 12:23:51;;;;;;;0.10;0.00;;;21.30;99.90;;;;;;4983093;28;21198;-83
2023/07/21 12:26:18;;;;;;;0.10;0.00;;;20.70;99.90;;;;;;4983920;28;20188;-81
2023/07/21 12:28:45;;;;;;;0.10;0.00;;;19.80;99.90;;;;;;4986240;28;20524;-83
2023/07/21 12:31:11;;;;;;;0.10;0.00;;;20.10;99.90;;;;;;4984613;28;20559;-83
2023/07/21 12:33:39;;;;;;;0.10;0.07;;;20.20;99.90;;;;;;4982375;28;20527;-83
2023/07/21 12:36:05;;;;;;;0.10;0.00;;;20.50;99.90;;;;;;4982273;28;20279;-82
2023/07/21 12:38:31;;;;;;;0.10;0.00;;;20.20;99.90;;;;;;4969459;28;20524;-83
2023/07/21 12:40:57;;;;;;;0.10;0.00;;;20.40;99.90;;;;;;4992391;28;20449;-80
2023/07/21 12:43:23;;;;;;;0.10;0.00;;;20.30;99.90;;;;;;4984382;28;20611;-81
2023/07/21 12:45:48;;;;;;;0.10;0.00;;;20.30;99.90;;;;;;4971920;28;20794;-81
2023/07/21 12:48:14;;;;;;;0.10;0.00;;;20.00;99.90;;;;;;4981246;28;20197;-81